Time;durP1;ratioP1;P1;durP2;ratioP2;P2;SDS_P1;SDS_P2;PMS_P1;PMS_P2;Temp;Humidity;BMP_temperature;BMP_pressure;BME280_temperature;BME280_humidity;BME280_pressure;Samples;Min_cycle;Max_cycle;Signal;HPM_P1;HPM_P2
2022/06/20 00:00:48;;;;;;;4.25;1.27;;;14.00;99.90;;;;;;5109696;28;20142;-87
2022/06/20 00:03:33;;;;;;;4.65;0.90;;;14.00;99.90;;;;;;5109975;28;20040;-87
2022/06/20 00:05:59;;;;;;;5.80;1.08;;;13.90;99.90;;;;;;5109749;28;20123;-88
2022/06/20 00:08:25;;;;;;;8.00;0.98;;;13.90;99.90;;;;;;5109458;28;20131;-88
2022/06/20 00:10:51;;;;;;;3.13;1.10;;;13.90;99.90;;;;;;5076715;28;20646;-87
2022/06/20 00:13:24;;;;;;;5.38;1.27;;;13.90;99.90;;;;;;5092995;28;20426;-88
2022/06/20 00:15:52;;;;;;;2.22;1.05;;;13.80;99.90;;;;;;5112836;28;20081;-87
2022/06/20 00:18:19;;;;;;;6.13;1.35;;;13.90;99.90;;;;;;5107793;28;20039;-88
2022/06/20 00:20:45;;;;;;;4.90;1.00;;;13.80;99.90;;;;;;5116054;28;20071;-88
2022/06/20 00:23:10;;;;;;;4.80;0.90;;;13.80;99.90;;;;;;5112472;28;20074;-88
2022/06/20 00:25:38;;;;;;;11.48;1.42;;;14.80;99.90;;;;;;5110737;28;20047;-88
2022/06/20 00:28:04;;;;;;;7.50;1.20;;;13.80;99.90;;;;;;5109843;28;20051;-87
2022/06/20 00:30:30;;;;;;;5.00;1.00;;;14.30;99.90;;;;;;5092703;28;20051;-88
2022/06/20 00:32:56;;;;;;;7.45;1.20;;;13.80;99.90;;;;;;5110097;28;20040;-88
2022/06/20 00:35:22;;;;;;;4.10;0.95;;;13.70;99.90;;;;;;5111103;28;20035;-88
2022/06/20 00:37:48;;;;;;;8.30;1.20;;;13.70;99.90;;;;;;5109668;28;20043;-89
2022/06/20 00:40:43;;;;;;;4.90;1.30;;;13.80;99.90;;;;;;5109770;28;20083;-88
2022/06/20 00:43:14;;;;;;;3.97;0.90;;;13.70;99.90;;;;;;5108693;28;20054;-87
2022/06/20 00:45:43;;;;;;;4.40;1.00;;;13.90;99.90;;;;;;5109543;28;20059;-87
2022/06/20 00:48:14;;;;;;;6.35;1.15;;;13.70;99.90;;;;;;5107390;28;20051;-87
2022/06/20 00:50:40;;;;;;;3.70;0.88;;;13.70;99.90;;;;;;5108081;28;20415;-87
2022/06/20 00:53:13;;;;;;;3.50;1.08;;;13.60;99.90;;;;;;5107489;28;20036;-86
2022/06/20 00:55:49;;;;;;;6.03;1.08;;;13.60;99.90;;;;;;5107593;28;20434;-88
2022/06/20 00:58:55;;;;;;;3.70;0.65;;;14.30;99.90;;;;;;5107964;28;20047;-87
2022/06/20 01:01:27;;;;;;;2.95;0.73;;;13.60;99.90;;;;;;5107697;28;20047;-86
2022/06/20 01:03:55;;;;;;;4.55;0.98;;;13.60;99.90;;;;;;5107098;28;20050;-87
2022/06/20 01:06:26;;;;;;;5.00;0.73;;;13.60;99.90;;;;;;5107614;28;20044;-87
2022/06/20 01:08:57;;;;;;;7.15;1.67;;;13.50;99.90;;;;;;5107088;28;20040;-87
2022/06/20 01:11:27;;;;;;;6.45;1.08;;;13.40;99.90;;;;;;5108005;28;20088;-87
2022/06/20 01:13:53;;;;;;;5.22;0.90;;;13.40;99.90;;;;;;5108318;28;20477;-87
2022/06/20 01:16:26;;;;;;;3.70;0.85;;;13.30;99.90;;;;;;5108743;28;20042;-87
2022/06/20 01:18:54;;;;;;;8.05;1.13;;;13.30;99.90;;;;;;5090585;28;20458;-87
2022/06/20 01:21:24;;;;;;;6.45;1.23;;;13.20;99.90;;;;;;5108380;28;20051;-89
2022/06/20 01:23:55;;;;;;;5.47;1.05;;;13.10;99.90;;;;;;5109974;28;20390;-89
2022/06/20 01:26:36;;;;;;;6.78;1.50;;;13.10;99.90;;;;;;5108402;28;20489;-88
2022/06/20 01:29:06;;;;;;;4.00;0.73;;;13.00;99.90;;;;;;5107526;28;20106;-89
2022/06/20 01:31:39;;;;;;;4.40;0.60;;;13.00;99.90;;;;;;5107543;28;20477;-88
2022/06/20 01:34:04;;;;;;;;;;;13.00;99.90;;;;;;5107604;28;20391;-88
2022/06/20 01:39:22;;;;;;;4.32;1.17;;;12.80;99.90;;;;;;5106921;28;20094;-88
2022/06/20 01:46:13;;;;;;;3.92;1.55;;;12.70;99.90;;;;;;5151054;27;20426;-88
2022/06/20 01:48:46;;;;;;;2.30;0.75;;;12.60;99.90;;;;;;5132046;27;20043;-88
2022/06/20 01:51:39;;;;;;;6.05;0.60;;;12.50;99.90;;;;;;5148411;27;20070;-88
2022/06/20 01:54:05;;;;;;;7.40;0.90;;;12.50;99.90;;;;;;5142112;27;20059;-88
2022/06/20 01:56:30;;;;;;;8.30;1.23;;;12.50;99.90;;;;;;5147858;27;20039;-88
2022/06/20 01:59:01;;;;;;;6.20;1.08;;;12.40;99.90;;;;;;5149366;27;20050;-88
2022/06/20 02:01:30;;;;;;;4.38;0.85;;;12.40;99.90;;;;;;5148799;27;20440;-87
2022/06/20 02:03:56;;;;;;;4.47;1.08;;;12.30;99.90;;;;;;5130898;27;20493;-88
2022/06/20 02:06:22;;;;;;;4.63;1.05;;;12.30;99.90;;;;;;5131723;27;20122;-88
2022/06/20 02:08:53;;;;;;;1.52;0.80;;;12.30;99.90;;;;;;5147700;27;20086;-88
2022/06/20 02:11:26;;;;;;;5.30;0.98;;;12.30;99.90;;;;;;5149316;27;20054;-87
2022/06/20 02:14:02;;;;;;;6.45;0.95;;;12.50;99.90;;;;;;5151160;27;20043;-88
2022/06/20 02:16:32;;;;;;;3.28;0.75;;;12.40;99.90;;;;;;5132155;27;20082;-88
2022/06/20 02:19:03;;;;;;;9.38;1.02;;;12.90;99.90;;;;;;5148929;27;20039;-89
2022/06/20 02:21:31;;;;;;;3.45;0.82;;;12.40;99.90;;;;;;5148055;27;20407;-88
2022/06/20 02:24:06;;;;;;;5.57;1.25;;;12.50;99.90;;;;;;5148675;27;20034;-87
2022/06/20 02:26:35;;;;;;;5.00;0.88;;;12.50;99.90;;;;;;5148188;27;20043;-88
2022/06/20 02:29:24;;;;;;;7.38;1.35;;;12.60;99.90;;;;;;5149071;27;20046;-88
2022/06/20 02:31:57;;;;;;;6.15;1.33;;;12.60;99.90;;;;;;5148615;27;20397;-87
2022/06/20 02:34:26;;;;;;;3.92;0.82;;;13.40;99.90;;;;;;5147319;27;20047;-87
2022/06/20 02:36:55;;;;;;;4.97;0.88;;;12.60;99.90;;;;;;5131220;27;20067;-87
2022/06/20 02:39:21;;;;;;;4.85;1.45;;;12.60;99.90;;;;;;5147556;27;20131;-87
2022/06/20 02:41:53;;;;;;;12.13;1.00;;;12.60;99.90;;;;;;5148333;27;20125;-87
2022/06/20 02:44:20;;;;;;;4.75;0.82;;;12.60;99.90;;;;;;5147540;27;20046;-87
2022/06/20 02:46:48;;;;;;;4.28;1.05;;;12.60;99.90;;;;;;5147452;27;20098;-87
2022/06/20 02:49:17;;;;;;;4.68;0.93;;;13.00;99.90;;;;;;5130956;27;20118;-88
2022/06/20 02:51:53;;;;;;;3.00;0.82;;;12.50;99.90;;;;;;5146934;27;20078;-87
2022/06/20 02:54:27;;;;;;;5.10;0.82;;;12.40;99.90;;;;;;5130824;27;20027;-88
2022/06/20 02:56:58;;;;;;;7.07;1.33;;;12.50;99.90;;;;;;5137868;27;20164;-88
2022/06/20 02:59:36;;;;;;;3.88;1.33;;;12.30;99.90;;;;;;5136095;27;20039;-88
2022/06/20 03:02:09;;;;;;;5.88;0.80;;;12.30;99.90;;;;;;5118023;27;20043;-87
2022/06/20 03:04:36;;;;;;;;;;;12.30;99.90;;;;;;5116778;27;20047;-87
2022/06/20 03:07:16;;;;;;;3.92;1.15;;;12.30;99.90;;;;;;5141613;27;19963;-87
2022/06/20 03:09:45;;;;;;;2.55;0.60;;;12.20;99.90;;;;;;5142196;27;20508;-87
2022/06/20 03:12:12;;;;;;;5.10;1.15;;;12.20;99.90;;;;;;5141933;27;20035;-86
2022/06/20 03:14:48;;;;;;;1.85;0.57;;;12.10;99.90;;;;;;5109306;27;20100;-87
2022/06/20 03:17:16;;;;;;;6.20;1.05;;;12.10;99.90;;;;;;5139572;27;20134;-86
2022/06/20 03:19:47;;;;;;;6.80;1.35;;;12.00;99.90;;;;;;5141305;27;20047;-88
2022/06/20 03:22:18;;;;;;;7.47;1.50;;;12.00;99.90;;;;;;5122291;27;20483;-87
2022/06/20 03:24:45;;;;;;;4.25;0.98;;;11.90;99.90;;;;;;5140496;27;20078;-88
2022/06/20 03:27:20;;;;;;;7.50;1.00;;;12.00;99.90;;;;;;5141950;27;20099;-89
2022/06/20 03:29:51;;;;;;;7.63;1.13;;;11.90;99.90;;;;;;5119620;27;20482;-89
2022/06/20 03:32:16;;;;;;;8.73;1.25;;;12.70;99.90;;;;;;5134552;27;20410;-88
2022/06/20 03:34:42;;;;;;;4.13;0.88;;;11.80;99.90;;;;;;5098998;27;20035;-88
2022/06/20 03:37:08;;;;;;;13.40;1.67;;;11.80;99.90;;;;;;5133927;27;20401;-88
2022/06/20 03:39:35;;;;;;;4.35;1.40;;;11.80;99.90;;;;;;5115982;27;20134;-88
2022/06/20 03:42:03;;;;;;;9.82;1.40;;;11.80;99.90;;;;;;5134877;27;20047;-88
2022/06/20 03:44:34;;;;;;;5.53;1.20;;;11.90;99.90;;;;;;5119206;27;20416;-88
2022/06/20 03:47:09;;;;;;;2.10;0.82;;;11.90;99.90;;;;;;5135774;27;20397;-88
2022/06/20 03:49:47;;;;;;;5.68;1.58;;;12.00;99.90;;;;;;5136442;27;20074;-87
2022/06/20 03:52:21;;;;;;;5.15;1.50;;;12.00;99.90;;;;;;5133496;27;20130;-89
2022/06/20 03:55:27;;;;;;;6.45;1.65;;;12.10;99.90;;;;;;5133502;27;20080;-88
2022/06/20 03:57:59;;;;;;;8.35;1.48;;;12.20;99.90;;;;;;5109757;27;20095;-89
2022/06/20 04:00:59;;;;;;;6.15;1.50;;;12.20;99.90;;;;;;5131857;27;20099;-89
2022/06/20 04:03:33;;;;;;;5.85;1.55;;;12.30;99.90;;;;;;5097568;27;20417;-88
2022/06/20 04:06:02;;;;;;;7.30;1.52;;;12.40;99.90;;;;;;5134584;27;20149;-89
2022/06/20 04:11:33;;;;;;;6.47;1.70;;;12.40;99.90;;;;;;5131260;27;20086;-90
2022/06/20 04:14:21;;;;;;;8.05;1.40;;;12.60;99.90;;;;;;5113768;27;20525;-89
2022/06/20 04:18:27;;;;;;;6.43;1.75;;;12.60;99.90;;;;;;5131433;27;20490;-90
2022/06/20 04:19:51;;;;;;;6.88;1.42;;;12.70;99.90;;;;;;5131088;27;20051;-89
2022/06/20 04:22:22;;;;;;;4.63;1.75;;;12.70;99.90;;;;;;5130983;27;20415;-89
2022/06/20 04:25:05;;;;;;;5.45;1.73;;;12.90;99.90;;;;;;5114619;27;20047;-89
2022/06/20 04:27:37;;;;;;;5.40;1.98;;;12.70;99.90;;;;;;5114075;27;20055;-88
2022/06/20 04:30:12;;;;;;;3.67;1.30;;;12.70;99.90;;;;;;5113487;27;20051;-89
2022/06/20 04:32:48;;;;;;;11.32;1.80;;;12.70;99.90;;;;;;5131272;27;20053;-84
2022/06/20 04:35:21;;;;;;;7.90;1.98;;;12.90;99.90;;;;;;5131509;27;20126;-92
2022/06/20 04:37:49;;;;;;;8.45;1.75;;;12.80;99.90;;;;;;5115399;27;20062;-89
2022/06/20 04:40:35;;;;;;;9.65;1.67;;;13.30;99.90;;;;;;5130918;27;20043;-89
2022/06/20 04:43:19;;;;;;;7.20;1.75;;;12.80;99.90;;;;;;5130696;27;20414;-88
2022/06/20 04:46:15;;;;;;;4.00;1.50;;;12.80;99.90;;;;;;5131199;27;20051;-90
2022/06/20 04:48:43;;;;;;;8.25;2.20;;;12.90;99.90;;;;;;5130354;27;20549;-86
2022/06/20 04:51:12;;;;;;;7.53;1.90;;;12.90;99.90;;;;;;5113067;27;20118;-88
2022/06/20 04:53:42;;;;;;;10.65;1.88;;;12.90;99.90;;;;;;5112900;27;20039;-87
2022/06/20 04:56:11;;;;;;;6.80;1.98;;;13.40;99.90;;;;;;5112771;27;20039;-87
2022/06/20 04:58:47;;;;;;;6.97;1.70;;;12.80;99.90;;;;;;5130964;27;20077;-89
2022/06/20 05:01:14;;;;;;;10.30;2.58;;;12.80;99.90;;;;;;5113813;27;20398;-90
2022/06/20 05:03:44;;;;;;;7.13;2.00;;;12.80;99.90;;;;;;5130531;27;20218;-88
2022/06/20 05:06:18;;;;;;;9.80;1.90;;;12.90;99.90;;;;;;5113500;27;20054;-88
2022/06/20 05:08:52;;;;;;;8.27;2.40;;;12.90;99.90;;;;;;5131070;27;20432;-89
2022/06/20 05:11:32;;;;;;;11.25;2.20;;;13.00;99.90;;;;;;5114190;27;20501;-90
2022/06/20 05:14:29;;;;;;;6.10;1.95;;;13.10;99.90;;;;;;5112773;27;20047;-88
2022/06/20 05:16:56;;;;;;;8.70;1.90;;;13.20;99.90;;;;;;5112547;27;20418;-89
2022/06/20 05:19:32;;;;;;;14.45;2.50;;;13.30;99.90;;;;;;5095850;27;20107;-88
2022/06/20 05:22:09;;;;;;;11.93;2.17;;;13.50;99.90;;;;;;5129909;27;20465;-86
2022/06/20 05:24:39;;;;;;;8.98;1.73;;;13.50;99.90;;;;;;5129569;27;20134;-84
2022/06/20 05:27:30;;;;;;;8.07;2.03;;;13.60;99.90;;;;;;5112882;27;20039;-85
2022/06/20 05:30:03;;;;;;;11.15;2.40;;;13.70;99.90;;;;;;5117434;27;20055;-85
2022/06/20 05:32:56;;;;;;;5.97;1.80;;;14.10;99.90;;;;;;5129592;27;20068;-83
2022/06/20 05:35:31;;;;;;;12.07;2.80;;;14.10;99.90;;;;;;5130343;27;20440;-85
2022/06/20 05:38:10;;;;;;;11.40;2.40;;;14.10;99.90;;;;;;5127419;27;20043;-85
2022/06/20 05:40:53;;;;;;;10.85;2.10;;;14.40;99.90;;;;;;5132605;27;20080;-85
2022/06/20 05:43:22;;;;;;;7.82;1.92;;;14.60;99.90;;;;;;5115533;28;20046;-85
2022/06/20 05:45:53;;;;;;;7.65;2.20;;;14.70;99.90;;;;;;5098905;28;20055;-85
2022/06/20 05:48:25;;;;;;;8.55;2.13;;;14.70;99.90;;;;;;5115605;28;20463;-85
2022/06/20 05:51:03;;;;;;;8.32;2.03;;;14.70;99.90;;;;;;5132543;28;20049;-85
2022/06/20 05:53:46;;;;;;;9.73;2.40;;;14.80;99.90;;;;;;5132827;28;20078;-85
2022/06/20 05:56:33;;;;;;;15.45;2.75;;;14.80;99.90;;;;;;5133495;28;20047;-85
2022/06/20 05:59:01;;;;;;;12.20;1.85;;;14.90;99.90;;;;;;5135372;28;20405;-85
2022/06/20 06:01:38;;;;;;;7.90;2.22;;;14.90;99.90;;;;;;5132701;28;20107;-86
2022/06/20 06:04:26;;;;;;;8.93;1.92;;;15.00;99.90;;;;;;5131789;28;20042;-85
2022/06/20 06:06:59;;;;;;;9.27;2.35;;;15.10;99.90;;;;;;5133348;28;20047;-84
2022/06/20 06:09:39;;;;;;;9.18;2.53;;;15.10;99.90;;;;;;5117240;28;20047;-85
2022/06/20 06:12:13;;;;;;;12.40;2.08;;;15.20;99.90;;;;;;5116379;28;20039;-84
2022/06/20 06:14:48;;;;;;;9.27;2.47;;;15.40;99.90;;;;;;5117620;28;20545;-85
2022/06/20 06:17:23;;;;;;;7.05;1.75;;;15.60;99.90;;;;;;5138181;28;20073;-85
2022/06/20 06:19:56;;;;;;;8.68;1.77;;;15.90;99.90;;;;;;5139829;28;20421;-85
2022/06/20 06:22:26;;;;;;;7.32;1.67;;;16.00;99.90;;;;;;5118554;28;20043;-85
2022/06/20 06:24:59;;;;;;;6.05;2.13;;;16.10;99.90;;;;;;5115242;28;20054;-86
2022/06/20 06:27:32;;;;;;;7.43;1.85;;;16.20;99.90;;;;;;5130443;28;20042;-84
2022/06/20 06:30:03;;;;;;;;;;;16.30;99.90;;;;;;5131755;28;20059;-84
2022/06/20 06:32:43;;;;;;;5.60;1.92;;;16.30;99.90;;;;;;5134633;27;20006;-86
2022/06/20 06:35:12;;;;;;;8.32;2.00;;;16.50;99.90;;;;;;5134616;27;20035;-85
2022/06/20 06:37:56;;;;;;;4.85;1.67;;;16.60;99.90;;;;;;5117989;27;20043;-85
2022/06/20 06:40:30;;;;;;;10.63;2.78;;;16.60;99.90;;;;;;5126518;27;20061;-88
2022/06/20 06:42:59;;;;;;;7.07;1.88;;;16.40;99.90;;;;;;5121899;27;20051;-87
2022/06/20 06:45:28;;;;;;;11.18;2.03;;;16.30;99.90;;;;;;5140192;27;20083;-87
2022/06/20 06:48:00;;;;;;;9.13;2.03;;;16.30;99.90;;;;;;5146462;27;20071;-88
2022/06/20 06:50:43;;;;;;;7.22;1.38;;;16.20;99.90;;;;;;5137329;27;20042;-89
2022/06/20 06:53:21;;;;;;;10.23;2.40;;;16.10;99.90;;;;;;5146858;27;20050;-90
2022/06/20 06:56:10;;;;;;;5.60;1.55;;;15.90;99.90;;;;;;5147885;27;20068;-87
2022/06/20 06:58:38;;;;;;;11.07;2.42;;;15.90;99.90;;;;;;5143246;27;20506;-88
2022/06/20 07:01:34;;;;;;;7.13;1.65;;;15.90;99.90;;;;;;5142127;27;20102;-87
2022/06/20 07:04:09;;;;;;;6.55;1.83;;;15.90;99.90;;;;;;5120952;27;20051;-87
2022/06/20 07:06:52;;;;;;;6.80;1.85;;;15.90;99.90;;;;;;5136195;27;20365;-87
2022/06/20 07:09:34;;;;;;;12.55;1.63;;;15.90;99.90;;;;;;5136145;27;20069;-89
2022/06/20 07:12:19;;;;;;;5.70;1.35;;;15.90;99.90;;;;;;5135523;27;20047;-89
2022/06/20 07:14:53;;;;;;;7.13;1.83;;;15.90;99.90;;;;;;5135240;27;20088;-88
2022/06/20 07:17:38;;;;;;;7.43;1.48;;;16.10;99.90;;;;;;5118211;27;20394;-87
2022/06/20 07:20:04;;;;;;;7.15;1.60;;;16.40;99.90;;;;;;5134787;27;20522;-88
2022/06/20 07:22:30;;;;;;;7.10;1.40;;;16.80;99.90;;;;;;5132828;27;20502;-87
2022/06/20 07:24:56;;;;;;;6.78;1.23;;;17.00;99.90;;;;;;5116343;27;20047;-87
2022/06/20 07:27:34;;;;;;;7.13;1.27;;;16.90;99.90;;;;;;5099252;27;20043;-89
2022/06/20 07:30:20;;;;;;;9.48;1.40;;;16.70;99.90;;;;;;5133349;27;20081;-89
2022/06/20 07:33:00;;;;;;;5.03;1.20;;;16.60;99.90;;;;;;5115846;27;20047;-88
2022/06/20 07:35:37;;;;;;;9.05;1.67;;;16.50;99.90;;;;;;5115090;27;20082;-88
2022/06/20 07:38:39;;;;;;;4.70;1.17;;;16.70;99.90;;;;;;5115518;27;20039;-88
2022/06/20 07:41:13;;;;;;;4.10;1.13;;;16.80;99.90;;;;;;5094018;27;20406;-89
2022/06/20 07:43:52;;;;;;;4.50;0.98;;;16.80;99.90;;;;;;5114498;27;20039;-89
2022/06/20 07:46:32;;;;;;;5.28;1.00;;;16.90;99.90;;;;;;5114024;27;20055;-88
2022/06/20 07:49:06;;;;;;;7.57;1.13;;;17.10;99.90;;;;;;5132448;27;20119;-88
2022/06/20 07:51:38;;;;;;;4.38;1.08;;;17.10;99.90;;;;;;5113117;27;20039;-88
2022/06/20 07:54:11;;;;;;;;;;;17.00;99.90;;;;;;5133653;27;20047;-87
2022/06/20 07:57:04;;;;;;;2.58;0.70;;;17.00;99.90;;;;;;5132603;27;19919;-88
2022/06/20 07:59:40;;;;;;;5.32;1.15;;;17.10;99.90;;;;;;5131608;27;20400;-88
2022/06/20 08:02:22;;;;;;;3.42;0.75;;;17.20;99.90;;;;;;5131057;27;20055;-89
2022/06/20 08:04:55;;;;;;;5.45;0.68;;;17.30;99.90;;;;;;5132083;27;20383;-88
2022/06/20 08:07:32;;;;;;;9.77;1.10;;;17.40;99.90;;;;;;5143369;27;20039;-87
2022/06/20 08:10:24;;;;;;;4.25;0.60;;;17.50;99.90;;;;;;5141959;27;20054;-88
2022/06/20 08:13:09;;;;;;;4.30;0.85;;;17.70;99.90;;;;;;5120366;27;20047;-84
2022/06/20 08:15:45;;;;;;;6.35;1.10;;;17.80;99.90;;;;;;5131990;27;20076;-84
2022/06/20 08:18:12;;;;;;;3.28;0.90;;;17.90;99.90;;;;;;5129680;27;20055;-85
2022/06/20 08:20:44;;;;;;;2.85;0.55;;;18.20;99.90;;;;;;5113220;27;20133;-84
2022/06/20 08:23:16;;;;;;;;;;;18.40;99.90;;;;;;5130063;27;20054;-84
2022/06/20 08:25:50;;;;;;;5.10;0.70;;;18.30;99.90;;;;;;5129803;27;19919;-84
2022/06/20 08:28:40;;;;;;;3.70;0.80;;;18.40;99.90;;;;;;5112653;27;20051;-84
2022/06/20 08:31:30;;;;;;;3.47;0.98;;;18.60;99.90;;;;;;5128681;27;20080;-88
2022/06/20 08:34:23;;;;;;;3.72;0.80;;;18.90;99.90;;;;;;5130676;27;20050;-86
2022/06/20 08:36:57;;;;;;;4.45;0.93;;;18.90;99.90;;;;;;5129574;27;20478;-83
2022/06/20 08:39:48;;;;;;;4.85;0.98;;;18.90;99.90;;;;;;5128547;27;20555;-86
2022/06/20 08:42:22;;;;;;;3.15;0.93;;;18.90;99.90;;;;;;5130473;27;20543;-85
2022/06/20 08:45:10;;;;;;;5.68;1.23;;;19.20;99.90;;;;;;5128764;27;20055;-84
2022/06/20 08:48:15;;;;;;;5.97;1.02;;;19.60;99.90;;;;;;5128601;27;20099;-83
2022/06/20 08:50:41;;;;;;;5.80;0.88;;;19.70;99.90;;;;;;5111885;27;20043;-84
2022/06/20 08:53:25;;;;;;;4.72;0.88;;;19.50;99.90;;;;;;5129961;27;20096;-86
2022/06/20 08:56:20;;;;;;;4.15;0.70;;;19.10;99.90;;;;;;5129013;27;20051;-86
2022/06/20 08:59:17;;;;;;;2.97;0.77;;;18.80;99.90;;;;;;5129385;27;20054;-85
2022/06/20 09:02:28;;;;;;;3.75;0.73;;;18.70;99.90;;;;;;5129195;27;20063;-85
2022/06/20 09:05:25;;;;;;;2.38;0.63;;;19.00;99.90;;;;;;5105889;27;20574;-84
2022/06/20 09:08:03;;;;;;;1.77;0.68;;;19.10;99.90;;;;;;5125094;27;20347;-85
2022/06/20 09:10:44;;;;;;;3.95;0.90;;;19.20;99.90;;;;;;5114217;27;20043;-85
2022/06/20 09:13:39;;;;;;;1.80;0.57;;;19.30;99.90;;;;;;5129437;27;20065;-84
2022/06/20 09:16:30;;;;;;;2.15;0.52;;;19.50;99.90;;;;;;5130752;27;20066;-85
2022/06/20 09:19:10;;;;;;;2.28;0.50;;;19.60;99.50;;;;;;5129916;27;20043;-86
2022/06/20 09:22:03;;;;;;;3.35;0.50;;;19.80;99.90;;;;;;5111489;27;20425;-85
2022/06/20 09:24:53;;;;;;;2.85;1.20;;;19.90;98.60;;;;;;5129409;27;20115;-86
2022/06/20 09:27:34;;;;;;;3.40;0.57;;;19.90;98.70;;;;;;5128332;27;20501;-84
2022/06/20 09:30:05;;;;;;;1.27;0.55;;;19.90;99.70;;;;;;5110926;27;20112;-85
2022/06/20 09:32:36;;;;;;;2.75;0.70;;;20.00;99.70;;;;;;5112087;27;20058;-87
2022/06/20 09:35:23;;;;;;;2.83;0.70;;;20.10;99.90;;;;;;5128043;27;20047;-87
2022/06/20 09:38:07;;;;;;;1.40;0.50;;;20.10;96.90;;;;;;5113247;27;20059;-87
2022/06/20 09:40:37;;;;;;;1.27;0.40;;;20.30;99.70;;;;;;5130177;27;20039;-87
2022/06/20 09:43:21;;;;;;;3.63;0.60;;;20.60;98.30;;;;;;5113812;28;20046;-87
2022/06/20 09:46:04;;;;;;;2.40;0.82;;;20.50;98.40;;;;;;5113465;28;20066;-86
2022/06/20 09:48:48;;;;;;;4.35;0.68;;;20.20;97.50;;;;;;5111179;28;20496;-84
2022/06/20 09:52:00;;;;;;;5.20;0.60;;;19.90;97.40;;;;;;5110581;28;20095;-84
2022/06/20 09:54:41;;;;;;;3.80;0.98;;;19.80;99.10;;;;;;5130506;27;20083;-84
2022/06/20 09:57:27;;;;;;;4.55;0.77;;;20.00;99.90;;;;;;5129451;27;20096;-82
2022/06/20 10:00:05;;;;;;;2.22;0.63;;;20.00;98.80;;;;;;5110290;28;20043;-84
2022/06/20 10:02:51;;;;;;;3.00;0.47;;;20.10;99.10;;;;;;5130037;27;20088;-83
2022/06/20 10:05:42;;;;;;;1.83;0.70;;;20.10;98.90;;;;;;5128371;27;20039;-82
2022/06/20 10:08:45;;;;;;;2.88;0.55;;;20.10;97.40;;;;;;5131485;27;20096;-80
2022/06/20 10:11:17;;;;;;;5.95;0.73;;;20.10;98.00;;;;;;5134051;27;20078;-81
2022/06/20 10:13:58;;;;;;;3.38;0.77;;;20.30;99.20;;;;;;5132582;27;20047;-84
2022/06/20 10:16:47;;;;;;;4.22;0.88;;;20.30;98.70;;;;;;5131805;27;20047;-81
2022/06/20 10:19:36;;;;;;;3.25;0.60;;;20.20;98.00;;;;;;5131793;27;20039;-81
2022/06/20 10:22:01;;;;;;;2.92;0.90;;;20.20;97.60;;;;;;5132286;27;20514;-81
2022/06/20 10:24:45;;;;;;;6.20;1.10;;;20.30;98.70;;;;;;5133762;27;20043;-81
2022/06/20 10:27:20;;;;;;;3.10;0.70;;;20.50;98.20;;;;;;5133303;27;20047;-81
2022/06/20 10:30:04;;;;;;;2.20;0.60;;;20.80;98.10;;;;;;5132766;27;20441;-81
2022/06/20 10:32:52;;;;;;;4.68;1.05;;;21.00;97.10;;;;;;5133304;27;20043;-81
2022/06/20 10:35:18;;;;;;;2.05;0.52;;;21.10;94.90;;;;;;5131294;27;20078;-82
2022/06/20 10:38:17;;;;;;;1.77;0.60;;;21.10;96.50;;;;;;5131266;27;20552;-82
2022/06/20 10:41:04;;;;;;;5.00;1.38;;;21.20;94.60;;;;;;5114507;27;20094;-82
2022/06/20 10:43:46;;;;;;;4.50;0.77;;;21.00;94.70;;;;;;5130827;27;20046;-82
2022/06/20 10:46:40;;;;;;;4.38;0.85;;;20.90;93.80;;;;;;5130379;27;20059;-82
2022/06/20 10:49:21;;;;;;;3.08;0.60;;;21.00;94.40;;;;;;5118106;27;20059;-83
2022/06/20 10:52:01;;;;;;;5.70;0.82;;;20.90;94.30;;;;;;5111957;27;20082;-84
2022/06/20 10:54:27;;;;;;;5.68;0.95;;;20.80;94.80;;;;;;5113678;27;20042;-83
2022/06/20 10:57:02;;;;;;;5.03;0.90;;;20.80;95.40;;;;;;5130677;27;20386;-82
2022/06/20 10:59:56;;;;;;;2.35;0.60;;;20.90;95.60;;;;;;5129848;27;20058;-84
2022/06/20 11:02:21;;;;;;;1.88;0.65;;;20.80;90.00;;;;;;5130665;27;20043;-83
2022/06/20 11:05:06;;;;;;;2.83;0.65;;;20.80;94.60;;;;;;5128385;27;20088;-83
2022/06/20 11:07:49;;;;;;;2.45;0.63;;;20.90;94.30;;;;;;5130867;27;20080;-84
2022/06/20 11:10:33;;;;;;;1.17;0.45;;;21.10;93.50;;;;;;5112478;27;20130;-83
2022/06/20 11:13:34;;;;;;;2.47;0.80;;;21.30;88.50;;;;;;5128639;27;20058;-83
2022/06/20 11:16:27;;;;;;;2.45;0.55;;;21.40;90.40;;;;;;5130267;27;20054;-84
2022/06/20 11:18:52;;;;;;;;;;;21.50;90.90;;;;;;5129936;27;20494;-80
2022/06/20 11:21:42;;;;;;;2.10;0.80;;;21.20;84.80;;;;;;5111870;27;19920;-82
2022/06/20 11:24:25;;;;;;;2.10;0.65;;;21.20;94.40;;;;;;5113227;27;20051;-82
2022/06/20 11:27:14;;;;;;;2.60;0.57;;;21.30;93.80;;;;;;5128402;27;20053;-82
2022/06/20 11:29:51;;;;;;;2.75;0.50;;;21.40;92.40;;;;;;5111715;27;20104;-83
2022/06/20 11:32:46;;;;;;;5.30;1.00;;;21.60;92.20;;;;;;5129785;27;20071;-82
2022/06/20 11:35:46;;;;;;;2.80;0.70;;;21.70;89.40;;;;;;5128588;27;20066;-81
2022/06/20 11:38:28;;;;;;;2.38;0.65;;;21.60;89.70;;;;;;5112170;27;20371;-81
2022/06/20 11:41:10;;;;;;;4.97;1.00;;;21.50;91.60;;;;;;5129742;27;20470;-82
2022/06/20 11:44:15;;;;;;;2.85;0.50;;;21.60;92.90;;;;;;5128182;27;20047;-82
2022/06/20 11:46:59;;;;;;;3.13;0.70;;;21.60;91.70;;;;;;5128999;27;20091;-83
2022/06/20 11:49:50;;;;;;;2.28;0.60;;;21.70;91.70;;;;;;5129661;27;20046;-81
2022/06/20 11:52:44;;;;;;;2.00;0.70;;;22.00;90.80;;;;;;5128245;27;20054;-79
2022/06/20 11:55:47;;;;;;;3.47;0.75;;;22.10;90.10;;;;;;5111492;27;20089;-81
2022/06/20 11:58:29;;;;;;;3.75;0.60;;;21.70;91.60;;;;;;5130100;27;20499;-81
2022/06/20 12:01:19;;;;;;;4.30;0.73;;;21.10;93.30;;;;;;5128273;27;20446;-82
2022/06/20 12:03:57;;;;;;;1.83;0.55;;;20.70;94.20;;;;;;5128355;27;20080;-81
2022/06/20 12:06:34;;;;;;;3.38;0.70;;;20.60;95.80;;;;;;5130220;27;20054;-81
2022/06/20 12:09:10;;;;;;;0.93;0.40;;;20.70;95.00;;;;;;5109968;27;20051;-81
2022/06/20 12:11:57;;;;;;;2.95;0.80;;;20.70;93.40;;;;;;5112069;27;20050;-82
2022/06/20 12:15:00;;;;;;;3.47;0.63;;;20.80;94.40;;;;;;5128464;27;20121;-81
2022/06/20 12:18:02;;;;;;;3.53;0.57;;;20.80;93.10;;;;;;5109943;27;20144;-80
2022/06/20 12:23:34;;;;;;;3.10;0.57;;;20.80;90.90;;;;;;5128879;27;20111;-81
2022/06/20 12:26:03;;;;;;;3.03;0.90;;;20.90;90.50;;;;;;5126937;27;20058;-81
2022/06/20 12:28:35;;;;;;;2.15;0.70;;;21.10;90.60;;;;;;5128767;27;20078;-80
2022/06/20 12:31:23;;;;;;;7.13;0.90;;;21.00;90.10;;;;;;5109769;27;20494;-81
2022/06/20 12:34:03;;;;;;;6.13;0.80;;;20.70;91.50;;;;;;5127925;27;20104;-80
2022/06/20 12:36:35;;;;;;;2.00;0.60;;;20.60;94.30;;;;;;5128612;27;20054;-80
2022/06/20 12:39:15;;;;;;;4.18;0.82;;;20.90;93.50;;;;;;5109479;27;20043;-80
2022/06/20 12:41:44;;;;;;;3.53;0.70;;;20.90;93.30;;;;;;5111255;27;20266;-80
2022/06/20 12:44:30;;;;;;;1.33;0.93;;;20.60;94.60;;;;;;5110042;27;20042;-82
2022/06/20 12:47:40;;;;;;;4.28;0.93;;;20.40;95.50;;;;;;5127140;27;20058;-83
2022/06/20 12:50:23;;;;;;;4.03;1.75;;;20.00;96.80;;;;;;5102903;27;20061;-84
2022/06/20 12:52:57;;;;;;;3.90;0.90;;;19.90;98.40;;;;;;5110199;27;20142;-83
2022/06/20 12:55:25;;;;;;;3.38;0.70;;;20.10;98.10;;;;;;5110356;27;20131;-80
2022/06/20 12:58:10;;;;;;;2.97;0.90;;;19.90;97.70;;;;;;5128021;27;20494;-82
2022/06/20 13:00:42;;;;;;;3.40;0.70;;;19.70;98.20;;;;;;5126901;27;20082;-83
2022/06/20 13:03:13;;;;;;;4.20;1.10;;;19.50;98.80;;;;;;5128058;27;20058;-80
2022/06/20 13:06:21;;;;;;;6.32;1.00;;;19.30;99.20;;;;;;5109747;27;20058;-82
2022/06/20 13:09:11;;;;;;;7.68;1.20;;;19.10;99.60;;;;;;5027426;28;20045;-80
2022/06/20 13:11:52;;;;;;;3.15;0.80;;;19.00;99.90;;;;;;5012912;28;20428;-82
2022/06/20 13:14:20;;;;;;;4.88;1.00;;;19.00;99.90;;;;;;5082739;27;20065;-81
2022/06/20 13:17:02;;;;;;;5.57;1.00;;;19.40;99.90;;;;;;5126705;27;20054;-81
2022/06/20 13:19:50;;;;;;;3.35;0.80;;;19.60;99.40;;;;;;5110766;27;20039;-81
2022/06/20 13:22:21;;;;;;;2.15;0.80;;;19.50;99.00;;;;;;5127458;27;20489;-81
2022/06/20 13:25:11;;;;;;;4.13;0.82;;;19.40;99.10;;;;;;5127284;27;20042;-81
2022/06/20 13:27:47;;;;;;;6.22;1.10;;;19.60;99.50;;;;;;5128548;27;20082;-80
2022/06/20 13:30:27;;;;;;;4.70;1.20;;;19.70;98.80;;;;;;5125798;27;20043;-80
2022/06/20 13:33:14;;;;;;;3.85;0.80;;;19.70;97.40;;;;;;5129143;27;20050;-81
2022/06/20 13:35:51;;;;;;;2.10;0.68;;;19.70;96.90;;;;;;5128222;27;20393;-82
2022/06/20 13:38:38;;;;;;;4.68;1.60;;;19.60;97.70;;;;;;5126744;27;20073;-82
2022/06/20 13:41:15;;;;;;;3.25;0.80;;;19.60;97.90;;;;;;5128083;27;20121;-82
2022/06/20 13:43:55;;;;;;;3.75;0.90;;;19.60;98.40;;;;;;5125635;27;20051;-82
2022/06/20 13:46:47;;;;;;;4.18;0.80;;;19.50;98.70;;;;;;5128240;27;20065;-83
2022/06/20 13:49:16;;;;;;;4.97;0.75;;;19.50;99.40;;;;;;5129101;27;20043;-81
2022/06/20 13:51:46;;;;;;;3.13;0.68;;;19.80;98.80;;;;;;5108446;28;20079;-83
2022/06/20 13:54:25;;;;;;;3.45;0.60;;;20.00;97.80;;;;;;5110875;28;20115;-82
2022/06/20 13:57:36;;;;;;;3.80;0.52;;;20.10;96.90;;;;;;5128202;27;20374;-81